Details From KGCC - Gillette Campbell Co
To KRAP - Rapid City Rgnl
Flight Number -
Tags Generated
Created
Modified
Stats Distance 108 nm / 200 km
Max Altitude 0 ft / 0 m
Waypoints 2
Social Downloads 1
Likes 0
Share VATSIM

Download

Looking for another format? Having issues loading an existing format? Contact us
Advertisement - Login to hide

Notes

Generated

Route

KGCC KRAP

ID Type Via Altitude Latitude Longitude Leg Dist Tot Dist Heading (true) Name
O KGCC APT - 0 ft / 0 m 44.34525˚ -105.54371˚ - 0 nm - GILLETTE CAMPBELL CO
O KRAP APT - 0 ft / 0 m 44.04787˚ -103.06382˚ 108 nm 108 nm 99° / 100° RAPID CITY RGNL

Altitude Profile

Advertisement - Login to hide

KGCC

Details ICAO KGCC (GCC)
Name GILLETTE CAMPBELL CO
Region United States
Timezone America/Denver (UTC-7.0)
Stats Elevation 4,365 ft / 1,330 m (AMSL)
Location 44.349201° -105.539068°
Runways 2
Magnetic Variation 8.922° E

METAR

KGCC 162253Z AUTO 04007KT 3/4SM -SN BR FEW006 OVC019 M02/M03 A2995 RMK AO2 SLP172 P0002 T10171033

Decode

TAF

KGCC 162036Z 1621/1718 03008KT 5SM -SN SCT015 OVC040 TEMPO 1621/1624 2SM -SN OVC015 FM170400 02004KT P6SM OVC015 FM171400 03004KT P6SM SCT015

Decode

Departure Runways

ID Width Length Bearing (true) Bearing (mag) Surface Threshold Offset Overrun Length
03 75 ft / 23 m 5,801 ft / 1,768 m 38.20° 29.28° Concrete 0 ft / 0 m 0 ft / 0 m
16 151 ft / 46 m 7,519 ft / 2,292 m 169.71° 160.79° Concrete 0 ft / 0 m 0 ft / 0 m
21 75 ft / 23 m 5,801 ft / 1,768 m 218.20° 209.28° Concrete 0 ft / 0 m 0 ft / 0 m
34 151 ft / 46 m 7,519 ft / 2,292 m 349.71° 340.79° Concrete 0 ft / 0 m 0 ft / 0 m

KRAP

Details ICAO KRAP (RAP)
Name RAPID CITY RGNL
Region United States
Timezone America/Denver (UTC-7.0)
Stats Elevation 3,204 ft / 977 m (AMSL)
Location 44.046952° -103.058688°
Runways 2
Magnetic Variation 7.427° E

METAR

KRAP 162252Z 32009KT 10SM BKN055 OVC070 01/M03 A2996 RMK AO2 SNE18 SLP169 P0000 T00111028 $

Decode

TAF

KRAP 162119Z 1621/1718 36013KT P6SM SCT015 OVC050 TEMPO 1621/1701 3SM -SN SCT008 BKN015 FM170100 35008KT P6SM SCT025 OVC040

Decode

Destination Runways

ID Width Length Bearing (true) Bearing (mag) Surface Threshold Offset Overrun Length
05 75 ft / 23 m 3,594 ft / 1,095 m 61.79° 54.36° Asphalt 0 ft / 0 m 0 ft / 0 m
14 151 ft / 46 m 8,701 ft / 2,652 m 151.91° 144.48° Concrete 0 ft / 0 m 200 ft / 61 m
23 75 ft / 23 m 3,594 ft / 1,095 m 241.80° 234.37° Asphalt 0 ft / 0 m 0 ft / 0 m
32 151 ft / 46 m 8,701 ft / 2,652 m 331.92° 324.49° Concrete 0 ft / 0 m 200 ft / 61 m

Approach Navaids

Runway Type Ident Frequency Range Bearing (true) Bearing (mag) Slope Elevation
32 Localiser IRAP 109.30 MHz 18 nm / 33 km 333.43° 326.00° - 3,197 ft / 974 m (AMSL)
32 Glidescope IRAP 109.30 MHz 10 nm / 19 km 331.91° 324.48° 3.00° 3,144 ft / 958 m (AMSL)
32 DME IRAP 109.30 MHz 18 nm / 33 km - - - 3,209 ft / 978 m (AMSL)

Popular Alternatives